Friday, January 19, 2018, 2:22 AM EST
Back to Local

KBLM, Belmar-farmingdale

Location: Farmingdale, NJ, United States Lat: 40.183
Local Time: 2:22 AM EST ( 7:22 GMT) Lon: -74.133
Time Zone: US/Eastern Elev: 157 ft

Show me the last for .
Show Coded

Time T Td Feel RH Dir Speed Gust Alt SLP Vis Weather Sky Remarks
2018-01-19 01:56 21 12 15 67 230° 5 - 30.07 30.08 10 CLR None
2018-01-19 00:56 21 13 13 70 230° 6 - 30.07 30.09 10 CLR 6-hr Min Temp (1am): 19.9°F
6-hr Max Temp (1am): 26.1°F
2018-01-18 23:56 20 11 - 67 - - - - - 10 CLR 24-hr Min Temp (12am): 15.1°F
24-hr Max Temp (12am): 34.0°F
2018-01-18 22:56 22 12 17 65 260° 3 - 30.10 30.11 10 CLR None
2018-01-18 21:56 23 12 16 62 280° 6 - - - 10 CLR None
2018-01-18 20:56 25 13 17 59 270° 7 - 30.09 30.10 10 CLR None
2018-01-18 19:56 25 13 17 59 260° 7 - 30.06 30.08 10 CLR None
2018-01-18 18:56 26 12 18 54 270° 8 - 30.05 30.07 10 CLR 6-hr Min Temp (7pm): 26.1°F
6-hr Max Temp (7pm): 34.0°F
2018-01-18 17:56 27 12 19 52 270° 7 - 30.02 30.03 10 CLR None
2018-01-18 16:56 29 11 19 46 280° 12 - 29.98 29.99 10 CLR None
2018-01-18 15:56 31 11 21 42 280° 13 - 29.96 29.97 10 CLR None
2018-01-18 14:56 32 8 21 35 280° 17 - 29.95 29.96 10 CLR None
2018-01-18 12:56 31 9 16 39 290° 20 30 29.96 29.97 10 CLR Peak wind: 29 mph (26 kts) from 290° at 53 min
6-hr Min Temp (1pm): 16.0°F
6-hr Max Temp (1pm): 32.0°F
2018-01-18 11:56 29 11 19 46 290° 13 - 30.02 30.03 10 CLR None
2018-01-18 10:56 26 10 14 50 280° 16 - 30.05 30.06 10 CLR None
2018-01-18 09:56 25 10 17 52 280° 7 - 30.10 30.11 10 CLR None
2018-01-18 08:56 23 10 14 56 290° 8 - 30.11 30.12 10 CLR None
2018-01-18 07:56 18 9 3 67 290° 17 - 30.04 30.06 10 CLR None
2018-01-18 06:56 16 9 3 73 290° 12 - 30.09 30.10 10 CLR 6-hr Min Temp (7am): 15.1°F
6-hr Max Temp (7am): 19.9°F
2018-01-18 05:56 15 8 4 73 270° 8 - 30.09 30.11 10 CLR None
2018-01-18 04:56 16 9 2 73 300° 13 - 30.04 30.05 10 CLR None
2018-01-18 03:56 17 10 2 73 300° 15 - 30.08 30.09 10 CLR None
2018-01-18 02:56 18 10 3 70 300° 17 - 30.11 30.12 10 CLR None

Support USWX by starting your Amazon purchase here.